Alvaton, Kentucky
Current Conditions -  °F | °C
As of 10:53 AM on Friday 31 Oct 2014 (Local Time) from KBWG Reporting Station
Overcast Overcast  
Wind Chill: 45°   Ceiling: 1200
Heat Index: 49°   Visibility: 9mi
Dew Point: 44°   Wind: 9mph
Humidity: 83%   Direction: 330°NNW
Pressure: 30.04"   Gusts: NA
Location:  36.87°N, 86.35°W
Report Text: KBWG 311553Z AUTO 33008KT 9SM SCT008 BKN012 OVC017 09/07 A3004 RMK AO2 SLP172 T00940067
Loading
Personal Weather Stations






























Interactive Weather Map
Tropical Storm Tracking
New forecast layout! Learn more

10-Day Weather Forecast

Advertisements
Track Severe Weather on mobile